createdAt,value
2023-02-11T00:02:24.068Z,26.52
2023-02-11T00:04:51.265Z,28.20
2023-02-11T00:07:18.389Z,29.55
2023-02-11T00:09:45.572Z,31.35
2023-02-11T00:12:15.836Z,29.80
2023-02-11T00:14:42.942Z,30.40
2023-02-11T00:17:10.210Z,30.92
2023-02-11T00:19:37.415Z,32.13
2023-02-11T00:22:04.542Z,33.85
2023-02-11T00:24:31.833Z,34.10
2023-02-11T00:27:00.336Z,33.47
2023-02-11T00:29:27.506Z,31.45
2023-02-11T00:31:54.808Z,32.75
2023-02-11T00:34:22.034Z,31.40
2023-02-11T00:36:49.902Z,34.25
2023-02-11T00:39:17.017Z,31.85
2023-02-11T00:41:44.193Z,32.70
2023-02-11T00:44:13.421Z,31.38
2023-02-11T00:46:40.598Z,31.05
2023-02-11T00:49:19.498Z,32.55
2023-02-11T00:52:24.880Z,31.70
2023-02-11T00:55:13.506Z,31.98
2023-02-11T00:57:41.179Z,30.55
2023-02-11T01:00:08.929Z,32.33
2023-02-11T01:02:36.260Z,28.98
2023-02-11T01:05:03.965Z,29.45
2023-02-11T01:07:31.133Z,28.30
2023-02-11T01:09:58.527Z,28.88
2023-02-11T01:12:25.956Z,28.90
2023-02-11T01:14:55.555Z,30.33
2023-02-11T01:17:22.752Z,29.50
2023-02-11T01:19:51.220Z,30.42
2023-02-11T01:22:18.416Z,31.63
2023-02-11T01:24:45.978Z,29.75
2023-02-11T01:27:13.245Z,30.75
2023-02-11T01:29:40.614Z,30.60
2023-02-11T01:32:07.835Z,30.65
2023-02-11T01:34:34.953Z,29.90
2023-02-11T01:37:02.347Z,27.95
2023-02-11T01:39:29.517Z,29.60
2023-02-11T01:41:56.638Z,28.38
2023-02-11T01:44:31.589Z,28.60
2023-02-11T01:46:58.714Z,28.70
2023-02-11T01:49:31.327Z,29.38
2023-02-11T01:52:00.899Z,28.67
2023-02-11T01:54:49.446Z,29.88
2023-02-11T01:57:25.345Z,28.90
2023-02-11T01:59:59.331Z,30.98
2023-02-11T02:02:33.873Z,29.25
2023-02-11T02:05:05.152Z,30.92
2023-02-11T02:07:36.762Z,30.52
2023-02-11T02:10:06.682Z,31.20
2023-02-11T02:12:33.865Z,30.08
2023-02-11T02:15:12.489Z,30.13
2023-02-11T02:17:42.643Z,32.72
2023-02-11T02:20:28.532Z,30.90
2023-02-11T02:22:58.840Z,32.72
2023-02-11T02:25:36.348Z,29.85
2023-02-11T02:28:16.100Z,33.75
2023-02-11T02:30:46.310Z,33.70
2023-02-11T02:33:22.380Z,33.35
2023-02-11T02:35:56.025Z,34.92
2023-02-11T02:38:32.205Z,34.00
2023-02-11T02:41:11.131Z,35.30
2023-02-11T02:43:41.284Z,35.70
2023-02-11T02:46:15.927Z,34.10
2023-02-11T02:48:43.271Z,36.63
2023-02-11T02:51:30.556Z,36.15
2023-02-11T02:54:03.551Z,35.67
2023-02-11T02:56:48.375Z,33.58
2023-02-11T02:59:34.390Z,35.88
2023-02-11T03:02:11.047Z,34.90
2023-02-11T03:04:41.035Z,33.85
2023-02-11T03:07:08.167Z,35.92
2023-02-11T03:09:38.501Z,34.30
2023-02-11T03:12:07.030Z,33.70
2023-02-11T03:14:34.843Z,35.95
2023-02-11T03:17:04.281Z,35.85
2023-02-11T03:19:33.987Z,36.15
2023-02-11T03:22:03.377Z,33.97
2023-02-11T03:24:36.331Z,35.33
2023-02-11T03:27:23.713Z,35.55
2023-02-11T03:29:56.661Z,37.53
2023-02-11T03:32:31.659Z,35.72
2023-02-11T03:34:58.841Z,36.05
2023-02-11T03:37:33.848Z,37.63
2023-02-11T03:40:04.672Z,34.63
2023-02-11T03:42:41.586Z,37.75
2023-02-11T03:45:14.479Z,36.42
2023-02-11T03:47:44.444Z,35.83
2023-02-11T03:50:12.725Z,38.10
2023-02-11T03:52:40.040Z,35.67
2023-02-11T03:55:09.885Z,36.83
2023-02-11T03:57:37.490Z,34.15
2023-02-11T04:00:05.232Z,38.55
2023-02-11T04:02:33.833Z,36.10
2023-02-11T04:05:01.177Z,36.22
2023-02-11T04:07:28.451Z,36.95
2023-02-11T04:09:55.625Z,36.83
2023-02-11T04:12:22.995Z,37.70
2023-02-11T04:14:50.159Z,36.38
2023-02-11T04:17:19.752Z,35.75
2023-02-11T04:19:47.031Z,37.72
2023-02-11T04:22:14.391Z,35.78
2023-02-11T04:24:44.046Z,37.50
2023-02-11T04:27:11.277Z,33.15
2023-02-11T04:29:38.449Z,35.10
2023-02-11T04:32:05.654Z,35.53
2023-02-11T04:34:33.571Z,34.17
2023-02-11T04:37:00.710Z,34.88
2023-02-11T04:39:27.947Z,34.08
2023-02-11T04:41:55.167Z,34.15
2023-02-11T04:44:23.467Z,34.28
2023-02-11T04:46:50.770Z,33.78
2023-02-11T04:49:18.579Z,33.28
2023-02-11T04:51:48.936Z,34.13
2023-02-11T04:54:16.505Z,34.15
2023-02-11T04:56:43.906Z,35.78
2023-02-11T04:59:13.265Z,33.42
2023-02-11T05:01:41.057Z,32.15
2023-02-11T05:04:08.314Z,32.72
2023-02-11T05:06:35.677Z,29.58
2023-02-11T05:09:02.828Z,30.38
2023-02-11T05:11:30.287Z,31.90
2023-02-11T05:13:57.707Z,29.98
2023-02-11T05:16:25.163Z,31.30
2023-02-11T05:18:53.801Z,30.90
2023-02-11T05:21:21.160Z,30.38
2023-02-11T05:23:48.619Z,28.50
2023-02-11T05:26:16.203Z,30.80
2023-02-11T05:28:44.933Z,30.60
2023-02-11T05:31:14.827Z,29.75
2023-02-11T05:33:42.341Z,28.60
2023-02-11T05:36:11.933Z,28.85
2023-02-11T05:38:39.477Z,29.85
2023-02-11T05:41:08.095Z,28.98
2023-02-11T05:43:35.919Z,30.67
2023-02-11T05:46:03.767Z,29.73
2023-02-11T05:48:31.284Z,28.67
2023-02-11T05:50:59.610Z,27.92
2023-02-11T05:53:26.815Z,28.48
2023-02-11T05:55:53.957Z,29.40
2023-02-11T05:58:21.497Z,30.40
2023-02-11T06:00:49.200Z,30.80
2023-02-11T06:03:16.408Z,29.50
2023-02-11T06:05:44.360Z,30.13
2023-02-11T06:08:11.621Z,30.20
2023-02-11T06:10:43.112Z,28.70
2023-02-11T06:13:10.207Z,27.15
2023-02-11T06:15:38.727Z,31.20
2023-02-11T06:18:05.992Z,34.47
2023-02-11T06:20:33.105Z,30.88
2023-02-11T06:23:00.358Z,32.03
2023-02-11T06:25:27.818Z,30.52
2023-02-11T06:27:55.191Z,30.63
2023-02-11T06:30:22.479Z,29.98
2023-02-11T06:32:51.158Z,30.98
2023-02-11T06:35:18.353Z,31.75
2023-02-11T06:37:45.596Z,28.38
2023-02-11T06:40:13.053Z,29.38
2023-02-11T06:42:41.807Z,32.10
2023-02-11T06:45:13.266Z,31.35
2023-02-11T06:47:40.983Z,33.05
2023-02-11T06:50:23.253Z,34.10
2023-02-11T06:52:50.375Z,31.55
2023-02-11T06:55:17.588Z,30.52
2023-02-11T06:57:46.162Z,31.92
2023-02-11T07:00:14.929Z,32.13
2023-02-11T07:02:42.204Z,32.45
2023-02-11T07:05:10.582Z,31.42
2023-02-11T07:07:38.010Z,32.05
2023-02-11T07:10:05.909Z,32.08
2023-02-11T07:12:33.211Z,34.55
2023-02-11T07:15:00.510Z,32.13
2023-02-11T07:17:27.633Z,30.17
2023-02-11T07:19:54.811Z,30.10
2023-02-11T07:22:21.993Z,29.05
2023-02-11T07:24:49.095Z,29.23
2023-02-11T07:27:16.229Z,29.55
2023-02-11T07:29:43.979Z,27.08
2023-02-11T07:32:11.134Z,29.65
2023-02-11T07:34:38.559Z,30.10
2023-02-11T07:37:05.788Z,29.52
2023-02-11T07:39:33.089Z,30.30
2023-02-11T07:42:00.244Z,28.25
2023-02-11T07:44:28.146Z,30.77
2023-02-11T07:46:56.863Z,29.48
2023-02-11T07:49:24.012Z,27.52
2023-02-11T07:51:51.505Z,28.15
2023-02-11T07:54:18.861Z,27.77
2023-02-11T07:56:46.042Z,26.00
2023-02-11T07:59:13.314Z,25.77
2023-02-11T08:01:40.427Z,25.33
2023-02-11T08:04:07.597Z,25.77
2023-02-11T08:06:35.602Z,25.30
2023-02-11T08:09:07.327Z,25.02
2023-02-11T08:11:34.674Z,24.52
2023-02-11T08:14:01.915Z,24.05
2023-02-11T08:16:31.180Z,23.27
2023-02-11T08:18:59.749Z,24.13
2023-02-11T08:21:27.032Z,25.75
2023-02-11T08:23:54.486Z,25.90
2023-02-11T08:26:23.007Z,25.40
2023-02-11T08:28:51.034Z,24.50
2023-02-11T08:31:23.101Z,23.42
2023-02-11T08:33:50.694Z,25.70
2023-02-11T08:36:21.764Z,23.35
2023-02-11T08:38:48.961Z,24.65
2023-02-11T08:41:16.781Z,22.48
2023-02-11T08:43:45.636Z,24.65
2023-02-11T08:46:15.024Z,25.20
2023-02-11T08:48:42.209Z,24.10
2023-02-11T08:51:10.368Z,24.15
2023-02-11T08:53:37.841Z,24.98
2023-02-11T08:56:06.897Z,24.48
2023-02-11T08:58:33.986Z,23.15
2023-02-11T09:01:01.128Z,24.27
2023-02-11T09:03:28.428Z,24.95
2023-02-11T09:05:56.930Z,24.15
2023-02-11T09:08:24.174Z,21.88
2023-02-11T09:10:51.535Z,22.17
2023-02-11T09:13:18.812Z,25.83
2023-02-11T09:15:46.953Z,23.40
2023-02-11T09:18:14.290Z,23.35
2023-02-11T09:20:41.614Z,21.27
2023-02-11T09:23:08.737Z,24.13
2023-02-11T09:25:35.908Z,21.95
2023-02-11T09:28:03.016Z,23.27
2023-02-11T09:30:30.288Z,22.73
2023-02-11T09:32:57.467Z,23.30
2023-02-11T09:35:24.533Z,21.92
2023-02-11T09:37:51.749Z,21.85
2023-02-11T09:40:20.038Z,23.75
2023-02-11T09:42:55.301Z,22.80
2023-02-11T09:45:25.163Z,21.02
2023-02-11T09:48:00.123Z,21.42
2023-02-11T09:50:35.189Z,23.73
2023-02-11T09:53:04.169Z,22.98
2023-02-11T09:55:41.966Z,21.75
2023-02-11T09:58:13.740Z,22.00
2023-02-11T10:00:43.827Z,22.67
2023-02-11T10:03:13.851Z,22.25
2023-02-11T10:05:49.815Z,23.30
2023-02-11T10:08:42.908Z,22.20
2023-02-11T10:11:30.571Z,21.58
2023-02-11T10:14:01.842Z,21.80
2023-02-11T10:16:46.991Z,21.35
2023-02-11T10:19:19.083Z,22.38
2023-02-11T10:22:04.779Z,22.80
2023-02-11T10:24:32.065Z,23.98
2023-02-11T10:26:59.804Z,22.30
2023-02-11T10:29:39.344Z,23.48
2023-02-11T10:32:41.959Z,21.95
2023-02-11T10:35:21.386Z,21.92
2023-02-11T10:37:48.697Z,22.95
2023-02-11T10:40:17.516Z,22.40
2023-02-11T10:42:47.721Z,21.70
2023-02-11T10:45:22.245Z,20.63
2023-02-11T10:47:49.471Z,21.00
2023-02-11T10:50:25.595Z,22.55
2023-02-11T10:52:53.234Z,22.38
2023-02-11T10:55:22.656Z,23.15
2023-02-11T10:58:14.908Z,22.70
2023-02-11T11:00:57.844Z,22.30
2023-02-11T11:10:44.532Z,20.35
2023-02-11T11:13:38.352Z,22.65
2023-02-11T11:16:09.249Z,21.73
2023-02-11T11:18:40.675Z,24.77
2023-02-11T11:21:14.495Z,24.13
2023-02-11T11:24:27.986Z,23.60
2023-02-11T11:30:04.764Z,23.13
2023-02-11T11:32:33.040Z,24.58
2023-02-11T11:35:02.788Z,25.55
2023-02-11T11:37:32.057Z,24.93
2023-02-11T11:40:14.517Z,24.70
2023-02-11T11:42:41.778Z,25.77
2023-02-11T11:45:23.486Z,22.50
2023-02-11T11:47:54.997Z,24.38
2023-02-11T11:50:28.260Z,24.55
2023-02-11T11:52:57.855Z,23.67
2023-02-11T11:55:32.321Z,24.52
2023-02-11T11:57:59.416Z,22.70
2023-02-11T12:00:35.919Z,22.30
2023-02-11T12:03:21.832Z,21.65
2023-02-11T12:06:04.186Z,23.50
2023-02-11T12:08:38.320Z,21.08
2023-02-11T12:11:14.761Z,23.45
2023-02-11T12:13:45.544Z,22.42
2023-02-11T12:16:13.938Z,22.77
2023-02-11T12:18:51.158Z,22.25
2023-02-11T12:21:31.009Z,23.45
2023-02-11T12:24:16.961Z,23.02
2023-02-11T12:26:47.497Z,23.10
2023-02-11T12:29:21.330Z,23.52
2023-02-11T12:32:09.601Z,23.75
2023-02-11T12:34:42.781Z,24.50
2023-02-11T12:37:18.795Z,24.30
2023-02-11T12:39:57.826Z,23.92
2023-02-11T12:42:49.459Z,23.33
2023-02-11T12:45:35.911Z,23.30
2023-02-11T12:48:22.883Z,24.20
2023-02-11T12:50:59.260Z,28.50
2023-02-11T12:53:38.345Z,22.98
2023-02-11T12:56:07.222Z,25.65
2023-02-11T12:58:44.830Z,24.50
2023-02-11T13:01:33.007Z,28.98
2023-02-11T13:04:09.175Z,24.70
2023-02-11T13:06:41.916Z,26.63
2023-02-11T13:09:16.644Z,23.73
2023-02-11T13:11:54.268Z,24.35
2023-02-11T13:14:32.800Z,25.33
2023-02-11T13:17:00.437Z,28.70
2023-02-11T13:19:27.665Z,26.45
2023-02-11T13:22:11.439Z,28.48
2023-02-11T13:24:49.103Z,26.75
2023-02-11T13:27:16.382Z,27.55
2023-02-11T13:30:04.600Z,27.80
2023-02-11T13:32:51.116Z,28.90
2023-02-11T13:35:41.506Z,27.00
2023-02-11T13:38:21.732Z,27.60
2023-02-11T13:41:06.071Z,28.05
2023-02-11T13:43:37.269Z,27.98
2023-02-11T13:46:05.787Z,28.23
2023-02-11T13:48:37.623Z,29.10
2023-02-11T13:51:11.697Z,30.58
2023-02-11T13:53:56.425Z,30.20
2023-02-11T13:56:42.671Z,33.95
2023-02-11T13:59:30.581Z,29.38
2023-02-11T14:02:19.279Z,32.63
2023-02-11T14:05:23.135Z,29.20
2023-02-11T14:08:32.551Z,29.70
2023-02-11T14:11:18.345Z,32.67
2023-02-11T14:13:48.652Z,31.95
2023-02-11T14:16:22.685Z,32.65
2023-02-11T14:18:55.375Z,32.33
2023-02-11T14:21:32.277Z,32.70
2023-02-11T14:24:04.268Z,32.92
2023-02-11T14:26:37.222Z,36.38
2023-02-11T14:29:08.706Z,34.92
2023-02-11T14:31:42.735Z,35.47
2023-02-11T14:34:33.492Z,32.47
2023-02-11T14:37:14.861Z,39.13
2023-02-11T14:39:42.259Z,34.78
2023-02-11T14:42:17.399Z,35.28
2023-02-11T14:44:44.612Z,33.05
2023-02-11T14:47:19.244Z,38.30
2023-02-11T14:49:46.609Z,33.08
2023-02-11T14:52:23.825Z,37.38
2023-02-11T14:54:51.967Z,37.03
2023-02-11T14:57:20.118Z,39.80
2023-02-11T14:59:55.588Z,38.20
2023-02-11T15:02:24.396Z,33.38
2023-02-11T15:04:51.546Z,39.17
2023-02-11T15:07:18.917Z,38.08
2023-02-11T15:09:51.617Z,33.05
2023-02-11T15:12:24.361Z,36.20
2023-02-11T15:14:53.578Z,38.42
2023-02-11T15:17:22.821Z,44.80
2023-02-11T15:19:53.229Z,39.83
2023-02-11T15:22:22.805Z,39.38
2023-02-11T15:25:04.156Z,40.88
2023-02-11T15:27:39.270Z,36.58
2023-02-11T15:30:20.973Z,38.95
2023-02-11T15:32:48.791Z,37.35
2023-02-11T15:35:15.951Z,37.13
2023-02-11T15:37:45.235Z,37.85
2023-02-11T15:40:15.648Z,37.90
2023-02-11T15:42:54.243Z,38.63
2023-02-11T15:45:25.997Z,42.35
2023-02-11T15:47:56.676Z,37.72
2023-02-11T15:52:55.656Z,33.22
2023-02-11T15:55:23.233Z,39.53
2023-02-11T15:57:53.216Z,41.42
2023-02-11T16:00:24.137Z,40.50
2023-02-11T16:02:53.783Z,46.28
2023-02-11T16:05:26.978Z,41.38
2023-02-11T16:08:06.595Z,39.70
2023-02-11T16:10:59.782Z,40.95
2023-02-11T16:13:37.030Z,41.90
2023-02-11T16:16:19.812Z,40.97
2023-02-11T16:19:05.227Z,38.78
2023-02-11T16:21:46.898Z,36.10
2023-02-11T16:24:35.183Z,44.05
2023-02-11T16:27:04.446Z,43.00
2023-02-11T16:29:32.999Z,40.30
2023-02-11T16:32:11.005Z,41.90
2023-02-11T16:34:38.296Z,43.75
2023-02-11T16:37:06.401Z,41.88
2023-02-11T16:39:33.855Z,43.28
2023-02-11T16:42:01.557Z,41.72
2023-02-11T16:44:29.168Z,44.00
2023-02-11T16:47:00.209Z,43.22
2023-02-11T16:49:29.214Z,42.13
2023-02-11T16:52:01.054Z,42.45
2023-02-11T16:54:29.085Z,41.72
2023-02-11T16:56:56.596Z,43.53
2023-02-11T16:59:24.002Z,42.63
2023-02-11T17:01:52.808Z,44.45
2023-02-11T17:04:21.960Z,47.85
2023-02-11T17:06:49.197Z,44.08
2023-02-11T17:09:18.827Z,44.03
2023-02-11T17:11:46.006Z,41.78
2023-02-11T17:14:13.211Z,37.75
2023-02-11T17:16:40.397Z,43.78
2023-02-11T17:19:07.844Z,42.75
2023-02-11T17:21:36.193Z,42.85
2023-02-11T17:24:03.522Z,43.70
2023-02-11T17:26:30.705Z,45.45
2023-02-11T17:29:00.574Z,67.22
2023-02-11T17:31:27.897Z,45.35
2023-02-11T17:33:55.037Z,51.15
2023-02-11T17:36:23.212Z,52.28
2023-02-11T17:38:52.267Z,45.50
2023-02-11T17:41:19.405Z,70.40
2023-02-11T17:43:46.647Z,128.77
2023-02-11T17:46:15.343Z,80.80
2023-02-11T17:48:42.591Z,100.93
2023-02-11T17:51:26.666Z,67.93
2023-02-11T17:53:54.128Z,86.60
2023-02-11T17:56:21.501Z,62.95
2023-02-11T17:58:48.684Z,56.13
2023-02-11T18:01:16.901Z,69.20
2023-02-11T18:03:44.328Z,43.72
2023-02-11T18:06:12.182Z,49.45
2023-02-11T18:08:39.315Z,43.05
2023-02-11T18:11:11.824Z,47.50
2023-02-11T18:13:39.101Z,46.65
2023-02-11T18:16:08.567Z,43.63
2023-02-11T18:18:36.165Z,48.50
2023-02-11T18:21:04.159Z,43.05
2023-02-11T18:23:31.428Z,43.65
2023-02-11T18:25:58.556Z,43.35
2023-02-11T18:28:25.837Z,43.28
2023-02-11T18:30:59.589Z,42.70
2023-02-11T18:33:27.228Z,46.13
2023-02-11T18:35:54.407Z,112.95
2023-02-11T18:38:22.773Z,97.38
2023-02-11T18:40:50.570Z,78.35
2023-02-11T18:43:17.994Z,43.35
2023-02-11T18:45:45.895Z,44.28
2023-02-11T18:48:14.106Z,78.22
2023-02-11T18:50:42.602Z,52.42
2023-02-11T18:53:09.950Z,61.65
2023-02-11T18:55:39.161Z,58.05
2023-02-11T18:58:06.457Z,50.05
2023-02-11T19:00:36.140Z,41.63
2023-02-11T19:03:03.279Z,41.07
2023-02-11T19:05:33.373Z,41.60
2023-02-11T19:08:01.287Z,41.60
2023-02-11T19:10:29.022Z,43.13
2023-02-11T19:12:58.962Z,47.85
2023-02-11T19:15:27.167Z,37.05
2023-02-11T19:17:58.567Z,35.85
2023-02-11T19:20:25.819Z,42.95
2023-02-11T19:22:53.206Z,38.05
2023-02-11T19:25:20.455Z,40.55
2023-02-11T19:27:47.593Z,33.55
2023-02-11T19:30:14.884Z,42.17
2023-02-11T19:32:49.897Z,41.47
2023-02-11T19:35:17.162Z,42.90
2023-02-11T19:37:45.772Z,42.00
2023-02-11T19:40:13.327Z,36.72
2023-02-11T19:42:40.449Z,36.95
2023-02-11T19:45:07.955Z,50.97
2023-02-11T19:47:35.345Z,47.85
2023-02-11T19:50:02.892Z,61.00
2023-02-11T19:52:29.998Z,48.25
2023-02-11T19:54:57.140Z,44.03
2023-02-11T19:57:33.122Z,40.60
2023-02-11T20:00:01.371Z,60.15
2023-02-11T20:02:56.128Z,49.17
2023-02-11T20:05:25.818Z,43.08
2023-02-11T20:07:53.639Z,39.42
2023-02-11T20:10:21.034Z,39.88
2023-02-11T20:12:48.370Z,42.63
2023-02-11T20:15:16.733Z,41.78
2023-02-11T20:17:43.927Z,43.63
2023-02-11T20:20:13.472Z,46.92
2023-02-11T20:22:40.644Z,39.20
2023-02-11T20:25:07.883Z,40.25
2023-02-11T20:27:35.130Z,38.65
2023-02-11T20:30:02.268Z,38.25
2023-02-11T20:32:32.830Z,42.03
2023-02-11T20:37:28.993Z,33.50
2023-02-11T20:39:59.210Z,36.65
2023-02-11T20:42:28.924Z,34.45
2023-02-11T20:44:56.544Z,35.45
2023-02-11T20:47:37.365Z,35.33
2023-02-11T20:50:07.945Z,37.53
2023-02-11T20:52:36.524Z,36.00
2023-02-11T20:55:06.985Z,40.72
2023-02-11T20:57:39.045Z,35.55
2023-02-11T21:00:07.120Z,36.17
2023-02-11T21:02:36.747Z,34.70
2023-02-11T21:05:05.579Z,37.55
2023-02-11T21:07:33.933Z,35.97
2023-02-11T21:10:10.461Z,33.17
2023-02-11T21:12:43.651Z,35.25
2023-02-11T21:15:14.450Z,31.45
2023-02-11T21:17:43.161Z,36.00
2023-02-11T21:20:31.088Z,34.60
2023-02-11T21:22:59.600Z,37.10
2023-02-11T21:25:27.267Z,33.90
2023-02-11T21:27:56.451Z,34.97
2023-02-11T21:30:26.887Z,37.13
2023-02-11T21:33:06.904Z,35.80
2023-02-11T21:35:36.415Z,36.47
2023-02-11T21:38:06.729Z,37.22
2023-02-11T21:40:35.969Z,36.05
2023-02-11T21:43:03.629Z,31.13
2023-02-11T21:45:33.073Z,32.33
2023-02-11T21:48:01.523Z,31.52
2023-02-11T21:50:28.954Z,33.70
2023-02-11T21:52:58.019Z,32.28
2023-02-11T21:55:28.150Z,31.15
2023-02-11T21:58:01.754Z,30.67
2023-02-11T22:07:24.326Z,29.00
2023-02-11T22:09:53.870Z,27.80
2023-02-11T22:12:21.280Z,25.90
2023-02-11T22:14:48.440Z,24.15
2023-02-11T22:17:15.584Z,24.90
2023-02-11T22:19:42.837Z,23.80
2023-02-11T22:22:09.973Z,25.60
2023-02-11T22:24:37.196Z,26.42
2023-02-11T22:27:05.718Z,25.63
2023-02-11T22:29:32.913Z,25.15
2023-02-11T22:32:00.277Z,25.10
2023-02-11T22:34:27.445Z,27.45
2023-02-11T22:36:54.646Z,25.90
2023-02-11T22:39:21.913Z,27.50
2023-02-11T22:41:49.508Z,30.30
2023-02-11T22:44:17.368Z,30.23
2023-02-11T22:46:46.394Z,30.83
2023-02-11T22:49:20.037Z,29.20
2023-02-11T22:51:48.020Z,28.13
2023-02-11T22:54:19.778Z,27.58
2023-02-11T22:56:50.613Z,28.23
2023-02-11T22:59:19.968Z,27.15
2023-02-11T23:01:47.445Z,29.73
2023-02-11T23:04:16.090Z,30.83
2023-02-11T23:06:43.893Z,29.80
2023-02-11T23:09:14.564Z,29.35
2023-02-11T23:11:41.918Z,29.65
2023-02-11T23:14:12.168Z,32.97
2023-02-11T23:16:39.534Z,32.00
2023-02-11T23:19:08.618Z,31.42
2023-02-11T23:21:37.094Z,31.02
2023-02-11T23:24:14.396Z,31.50
2023-02-11T23:26:42.913Z,29.98
2023-02-11T23:29:10.687Z,31.27
2023-02-11T23:31:39.902Z,31.52
2023-02-11T23:34:07.620Z,33.25
2023-02-11T23:36:34.913Z,37.33
2023-02-11T23:39:02.351Z,36.42
2023-02-11T23:41:29.652Z,37.38
2023-02-11T23:43:58.083Z,35.45
2023-02-11T23:46:28.620Z,34.63
2023-02-11T23:48:56.129Z,32.25
2023-02-11T23:51:23.832Z,33.30
2023-02-11T23:53:52.029Z,34.90
2023-02-11T23:56:20.619Z,29.90
2023-02-11T23:58:51.531Z,25.58
